sensor_id;sensor_type;location;lat;lon;timestamp;P1;durP1;ratioP1;P2;durP2;ratioP2
19507;SDS011;40157;42.566;27.526;2023-03-25T00:01:43;4.10;;;2.30;;
19507;SDS011;40157;42.566;27.526;2023-03-25T00:03:44;4.47;;;3.07;;
19507;SDS011;40157;42.566;27.526;2023-03-25T00:05:49;5.67;;;2.67;;
19507;SDS011;40157;42.566;27.526;2023-03-25T00:07:50;4.90;;;2.67;;
19507;SDS011;40157;42.566;27.526;2023-03-25T00:09:52;7.50;;;3.17;;
19507;SDS011;40157;42.566;27.526;2023-03-25T00:11:52;7.73;;;2.73;;
19507;SDS011;40157;42.566;27.526;2023-03-25T00:13:52;4.40;;;2.77;;
19507;SDS011;40157;42.566;27.526;2023-03-25T00:15:53;4.23;;;2.90;;
19507;SDS011;40157;42.566;27.526;2023-03-25T00:17:57;6.20;;;2.93;;
19507;SDS011;40157;42.566;27.526;2023-03-25T00:19:57;4.90;;;2.97;;
19507;SDS011;40157;42.566;27.526;2023-03-25T00:21:59;6.00;;;3.20;;
19507;SDS011;40157;42.566;27.526;2023-03-25T00:24:00;7.23;;;3.50;;
19507;SDS011;40157;42.566;27.526;2023-03-25T00:26:01;5.90;;;3.60;;
19507;SDS011;40157;42.566;27.526;2023-03-25T00:28:02;7.40;;;2.97;;
19507;SDS011;40157;42.566;27.526;2023-03-25T00:30:02;6.10;;;3.50;;
19507;SDS011;40157;42.566;27.526;2023-03-25T00:32:03;6.73;;;3.60;;
19507;SDS011;40157;42.566;27.526;2023-03-25T00:34:04;8.20;;;3.70;;
19507;SDS011;40157;42.566;27.526;2023-03-25T00:36:04;6.37;;;3.67;;
19507;SDS011;40157;42.566;27.526;2023-03-25T00:38:05;9.20;;;3.60;;
19507;SDS011;40157;42.566;27.526;2023-03-25T00:40:06;9.07;;;3.77;;
19507;SDS011;40157;42.566;27.526;2023-03-25T00:42:07;5.93;;;3.60;;
19507;SDS011;40157;42.566;27.526;2023-03-25T00:44:10;8.63;;;4.03;;
19507;SDS011;40157;42.566;27.526;2023-03-25T00:46:16;9.10;;;4.57;;
19507;SDS011;40157;42.566;27.526;2023-03-25T00:48:16;8.10;;;4.57;;
19507;SDS011;40157;42.566;27.526;2023-03-25T00:50:17;7.17;;;3.77;;
19507;SDS011;40157;42.566;27.526;2023-03-25T00:52:25;8.33;;;4.67;;
19507;SDS011;40157;42.566;27.526;2023-03-25T00:54:25;7.23;;;3.83;;
19507;SDS011;40157;42.566;27.526;2023-03-25T00:56:26;8.80;;;4.40;;
19507;SDS011;40157;42.566;27.526;2023-03-25T00:58:27;8.07;;;4.03;;
19507;SDS011;40157;42.566;27.526;2023-03-25T01:00:27;6.73;;;3.67;;
19507;SDS011;40157;42.566;27.526;2023-03-25T01:02:28;9.60;;;4.70;;
19507;SDS011;40157;42.566;27.526;2023-03-25T01:04:29;9.10;;;4.60;;
19507;SDS011;40157;42.566;27.526;2023-03-25T01:06:34;11.67;;;4.63;;
19507;SDS011;40157;42.566;27.526;2023-03-25T01:08:35;10.93;;;4.97;;
19507;SDS011;40157;42.566;27.526;2023-03-25T01:10:35;12.47;;;6.63;;
19507;SDS011;40157;42.566;27.526;2023-03-25T01:12:36;12.13;;;5.37;;
19507;SDS011;40157;42.566;27.526;2023-03-25T01:14:37;9.93;;;4.80;;
19507;SDS011;40157;42.566;27.526;2023-03-25T01:16:38;10.03;;;5.03;;
19507;SDS011;40157;42.566;27.526;2023-03-25T01:18:38;10.17;;;5.53;;
19507;SDS011;40157;42.566;27.526;2023-03-25T01:20:39;8.57;;;5.07;;
19507;SDS011;40157;42.566;27.526;2023-03-25T01:22:40;8.00;;;4.73;;
19507;SDS011;40157;42.566;27.526;2023-03-25T01:24:40;9.57;;;4.73;;
19507;SDS011;40157;42.566;27.526;2023-03-25T01:26:44;11.33;;;5.07;;
19507;SDS011;40157;42.566;27.526;2023-03-25T01:28:45;10.13;;;5.23;;
19507;SDS011;40157;42.566;27.526;2023-03-25T01:30:46;10.90;;;5.17;;
19507;SDS011;40157;42.566;27.526;2023-03-25T01:32:46;9.43;;;5.27;;
19507;SDS011;40157;42.566;27.526;2023-03-25T01:34:47;11.80;;;5.23;;
19507;SDS011;40157;42.566;27.526;2023-03-25T01:36:48;12.20;;;5.67;;
19507;SDS011;40157;42.566;27.526;2023-03-25T01:38:48;9.07;;;5.20;;
19507;SDS011;40157;42.566;27.526;2023-03-25T01:40:50;11.30;;;6.07;;
19507;SDS011;40157;42.566;27.526;2023-03-25T01:42:52;12.60;;;5.00;;
19507;SDS011;40157;42.566;27.526;2023-03-25T01:46:53;7.17;;;4.73;;
19507;SDS011;40157;42.566;27.526;2023-03-25T01:48:55;10.50;;;4.67;;
19507;SDS011;40157;42.566;27.526;2023-03-25T01:50:58;10.97;;;5.47;;
19507;SDS011;40157;42.566;27.526;2023-03-25T01:53:02;9.50;;;5.07;;
19507;SDS011;40157;42.566;27.526;2023-03-25T01:55:04;9.23;;;4.93;;
19507;SDS011;40157;42.566;27.526;2023-03-25T01:57:05;9.63;;;4.93;;
19507;SDS011;40157;42.566;27.526;2023-03-25T01:59:07;8.33;;;4.57;;
19507;SDS011;40157;42.566;27.526;2023-03-25T02:01:10;8.53;;;5.03;;
19507;SDS011;40157;42.566;27.526;2023-03-25T02:03:12;11.07;;;4.70;;
19507;SDS011;40157;42.566;27.526;2023-03-25T02:05:19;8.37;;;4.70;;
19507;SDS011;40157;42.566;27.526;2023-03-25T02:07:25;9.17;;;4.80;;
19507;SDS011;40157;42.566;27.526;2023-03-25T02:09:29;7.40;;;4.60;;
19507;SDS011;40157;42.566;27.526;2023-03-25T02:11:31;8.90;;;4.80;;
19507;SDS011;40157;42.566;27.526;2023-03-25T02:13:32;7.97;;;4.43;;
19507;SDS011;40157;42.566;27.526;2023-03-25T02:15:39;11.17;;;5.27;;
19507;SDS011;40157;42.566;27.526;2023-03-25T02:18:12;9.43;;;4.93;;
19507;SDS011;40157;42.566;27.526;2023-03-25T02:27:51;8.43;;;4.50;;
19507;SDS011;40157;42.566;27.526;2023-03-25T02:30:06;13.87;;;4.23;;
19507;SDS011;40157;42.566;27.526;2023-03-25T02:35:13;8.77;;;4.80;;
19507;SDS011;40157;42.566;27.526;2023-03-25T02:37:42;7.57;;;4.60;;
19507;SDS011;40157;42.566;27.526;2023-03-25T02:46:42;7.60;;;4.40;;
19507;SDS011;40157;42.566;27.526;2023-03-25T02:51:13;10.23;;;4.83;;
19507;SDS011;40157;42.566;27.526;2023-03-25T02:53:20;10.57;;;5.50;;
19507;SDS011;40157;42.566;27.526;2023-03-25T02:55:26;8.30;;;4.70;;
19507;SDS011;40157;42.566;27.526;2023-03-25T02:57:33;12.10;;;5.47;;
19507;SDS011;40157;42.566;27.526;2023-03-25T02:59:37;11.37;;;5.47;;
19507;SDS011;40157;42.566;27.526;2023-03-25T03:01:38;10.50;;;5.10;;
19507;SDS011;40157;42.566;27.526;2023-03-25T03:03:39;9.97;;;5.20;;
19507;SDS011;40157;42.566;27.526;2023-03-25T03:05:43;9.47;;;4.60;;
19507;SDS011;40157;42.566;27.526;2023-03-25T03:07:47;8.93;;;4.70;;
19507;SDS011;40157;42.566;27.526;2023-03-25T03:12:22;8.30;;;4.13;;
19507;SDS011;40157;42.566;27.526;2023-03-25T03:21:14;10.13;;;4.53;;
19507;SDS011;40157;42.566;27.526;2023-03-25T03:23:35;11.20;;;4.50;;
19507;SDS011;40157;42.566;27.526;2023-03-25T03:26:02;9.00;;;4.87;;
19507;SDS011;40157;42.566;27.526;2023-03-25T03:30:25;10.43;;;5.73;;
19507;SDS011;40157;42.566;27.526;2023-03-25T03:32:33;15.03;;;7.77;;
19507;SDS011;40157;42.566;27.526;2023-03-25T03:34:51;22.23;;;9.57;;
19507;SDS011;40157;42.566;27.526;2023-03-25T03:37:01;16.17;;;8.63;;
19507;SDS011;40157;42.566;27.526;2023-03-25T03:39:06;17.93;;;9.03;;
19507;SDS011;40157;42.566;27.526;2023-03-25T03:41:14;13.67;;;7.57;;
19507;SDS011;40157;42.566;27.526;2023-03-25T03:43:20;19.77;;;9.47;;
19507;SDS011;40157;42.566;27.526;2023-03-25T03:45:33;16.93;;;9.77;;
19507;SDS011;40157;42.566;27.526;2023-03-25T03:47:39;21.13;;;10.97;;
19507;SDS011;40157;42.566;27.526;2023-03-25T03:49:49;29.73;;;15.47;;
19507;SDS011;40157;42.566;27.526;2023-03-25T03:52:14;27.17;;;13.40;;
19507;SDS011;40157;42.566;27.526;2023-03-25T03:54:23;27.43;;;13.03;;
19507;SDS011;40157;42.566;27.526;2023-03-25T03:56:34;25.77;;;12.70;;
19507;SDS011;40157;42.566;27.526;2023-03-25T03:58:45;20.67;;;11.33;;
19507;SDS011;40157;42.566;27.526;2023-03-25T04:01:00;19.00;;;10.37;;
19507;SDS011;40157;42.566;27.526;2023-03-25T04:03:12;18.80;;;10.67;;
19507;SDS011;40157;42.566;27.526;2023-03-25T04:05:18;25.37;;;9.80;;
19507;SDS011;40157;42.566;27.526;2023-03-25T04:07:23;16.83;;;8.70;;
19507;SDS011;40157;42.566;27.526;2023-03-25T04:09:54;13.43;;;7.80;;
19507;SDS011;40157;42.566;27.526;2023-03-25T04:12:06;17.07;;;7.87;;
19507;SDS011;40157;42.566;27.526;2023-03-25T04:14:13;16.63;;;8.57;;
19507;SDS011;40157;42.566;27.526;2023-03-25T04:16:13;13.30;;;7.33;;
19507;SDS011;40157;42.566;27.526;2023-03-25T04:18:14;14.10;;;6.83;;
19507;SDS011;40157;42.566;27.526;2023-03-25T04:20:15;11.07;;;5.57;;
19507;SDS011;40157;42.566;27.526;2023-03-25T04:22:22;16.37;;;6.03;;
19507;SDS011;40157;42.566;27.526;2023-03-25T04:24:23;17.57;;;9.83;;
19507;SDS011;40157;42.566;27.526;2023-03-25T04:26:24;28.50;;;16.33;;
19507;SDS011;40157;42.566;27.526;2023-03-25T04:28:24;32.27;;;17.40;;
19507;SDS011;40157;42.566;27.526;2023-03-25T04:30:26;33.73;;;15.53;;
19507;SDS011;40157;42.566;27.526;2023-03-25T04:32:27;27.90;;;14.20;;
19507;SDS011;40157;42.566;27.526;2023-03-25T04:34:28;22.33;;;11.90;;
19507;SDS011;40157;42.566;27.526;2023-03-25T04:36:28;21.37;;;10.90;;
19507;SDS011;40157;42.566;27.526;2023-03-25T04:38:32;20.20;;;10.10;;
19507;SDS011;40157;42.566;27.526;2023-03-25T04:40:33;22.93;;;10.07;;
19507;SDS011;40157;42.566;27.526;2023-03-25T04:42:33;13.17;;;7.93;;
19507;SDS011;40157;42.566;27.526;2023-03-25T04:44:36;13.47;;;6.63;;
19507;SDS011;40157;42.566;27.526;2023-03-25T04:46:38;12.50;;;7.23;;
19507;SDS011;40157;42.566;27.526;2023-03-25T04:48:38;12.90;;;6.07;;
19507;SDS011;40157;42.566;27.526;2023-03-25T04:50:40;12.63;;;5.97;;
19507;SDS011;40157;42.566;27.526;2023-03-25T04:52:41;19.40;;;6.53;;
19507;SDS011;40157;42.566;27.526;2023-03-25T04:54:41;22.70;;;10.03;;
19507;SDS011;40157;42.566;27.526;2023-03-25T04:56:44;33.57;;;13.13;;
19507;SDS011;40157;42.566;27.526;2023-03-25T04:58:46;40.90;;;15.40;;
19507;SDS011;40157;42.566;27.526;2023-03-25T05:00:48;54.97;;;18.93;;
19507;SDS011;40157;42.566;27.526;2023-03-25T05:02:54;63.03;;;20.20;;
19507;SDS011;40157;42.566;27.526;2023-03-25T05:04:55;57.13;;;19.10;;
19507;SDS011;40157;42.566;27.526;2023-03-25T05:07:01;50.93;;;17.83;;
19507;SDS011;40157;42.566;27.526;2023-03-25T05:09:02;61.23;;;19.47;;
19507;SDS011;40157;42.566;27.526;2023-03-25T05:11:03;62.70;;;22.67;;
19507;SDS011;40157;42.566;27.526;2023-03-25T05:13:05;74.50;;;24.07;;
19507;SDS011;40157;42.566;27.526;2023-03-25T05:15:07;63.20;;;23.73;;
19507;SDS011;40157;42.566;27.526;2023-03-25T05:17:08;73.53;;;23.70;;
19507;SDS011;40157;42.566;27.526;2023-03-25T05:19:09;66.07;;;24.60;;
19507;SDS011;40157;42.566;27.526;2023-03-25T05:21:10;73.90;;;24.20;;
19507;SDS011;40157;42.566;27.526;2023-03-25T05:23:12;54.97;;;19.03;;
19507;SDS011;40157;42.566;27.526;2023-03-25T05:25:16;46.97;;;17.10;;
19507;SDS011;40157;42.566;27.526;2023-03-25T05:27:17;45.93;;;16.30;;
19507;SDS011;40157;42.566;27.526;2023-03-25T05:29:19;38.03;;;13.13;;
19507;SDS011;40157;42.566;27.526;2023-03-25T05:31:19;30.00;;;11.50;;
19507;SDS011;40157;42.566;27.526;2023-03-25T05:33:20;29.13;;;10.73;;
19507;SDS011;40157;42.566;27.526;2023-03-25T05:35:21;37.40;;;12.37;;
19507;SDS011;40157;42.566;27.526;2023-03-25T05:37:21;35.50;;;12.30;;
19507;SDS011;40157;42.566;27.526;2023-03-25T05:39:22;28.50;;;10.93;;
19507;SDS011;40157;42.566;27.526;2023-03-25T05:41:24;29.80;;;10.00;;
19507;SDS011;40157;42.566;27.526;2023-03-25T05:43:31;26.23;;;9.23;;
19507;SDS011;40157;42.566;27.526;2023-03-25T05:45:34;23.83;;;8.97;;
19507;SDS011;40157;42.566;27.526;2023-03-25T05:47:35;26.20;;;9.83;;
19507;SDS011;40157;42.566;27.526;2023-03-25T05:49:35;32.33;;;11.87;;
19507;SDS011;40157;42.566;27.526;2023-03-25T05:51:36;29.17;;;12.13;;
19507;SDS011;40157;42.566;27.526;2023-03-25T05:53:37;36.30;;;14.17;;
19507;SDS011;40157;42.566;27.526;2023-03-25T05:55:38;30.57;;;12.43;;
19507;SDS011;40157;42.566;27.526;2023-03-25T05:57:38;33.40;;;14.13;;
19507;SDS011;40157;42.566;27.526;2023-03-25T05:59:38;39.60;;;15.47;;
19507;SDS011;40157;42.566;27.526;2023-03-25T06:01:39;31.93;;;13.90;;
19507;SDS011;40157;42.566;27.526;2023-03-25T06:03:44;36.50;;;14.67;;
19507;SDS011;40157;42.566;27.526;2023-03-25T06:05:45;40.63;;;15.40;;
19507;SDS011;40157;42.566;27.526;2023-03-25T06:07:47;39.77;;;15.90;;
19507;SDS011;40157;42.566;27.526;2023-03-25T06:09:48;38.27;;;16.17;;
19507;SDS011;40157;42.566;27.526;2023-03-25T06:11:53;39.33;;;17.03;;
19507;SDS011;40157;42.566;27.526;2023-03-25T06:13:53;33.93;;;14.43;;
19507;SDS011;40157;42.566;27.526;2023-03-25T06:15:53;35.67;;;15.77;;
19507;SDS011;40157;42.566;27.526;2023-03-25T06:17:56;37.73;;;15.90;;
19507;SDS011;40157;42.566;27.526;2023-03-25T06:19:56;32.90;;;15.43;;
19507;SDS011;40157;42.566;27.526;2023-03-25T06:21:59;37.60;;;14.27;;
19507;SDS011;40157;42.566;27.526;2023-03-25T06:23:59;33.43;;;15.00;;
19507;SDS011;40157;42.566;27.526;2023-03-25T06:26:01;30.67;;;13.93;;
19507;SDS011;40157;42.566;27.526;2023-03-25T06:28:03;29.63;;;13.93;;
19507;SDS011;40157;42.566;27.526;2023-03-25T06:30:04;32.30;;;14.20;;
19507;SDS011;40157;42.566;27.526;2023-03-25T06:32:08;30.40;;;13.80;;
19507;SDS011;40157;42.566;27.526;2023-03-25T06:34:10;33.03;;;14.17;;
19507;SDS011;40157;42.566;27.526;2023-03-25T06:36:11;35.40;;;14.43;;
19507;SDS011;40157;42.566;27.526;2023-03-25T06:38:14;36.03;;;13.83;;
19507;SDS011;40157;42.566;27.526;2023-03-25T06:40:14;25.53;;;12.67;;
19507;SDS011;40157;42.566;27.526;2023-03-25T06:42:16;25.97;;;12.27;;
19507;SDS011;40157;42.566;27.526;2023-03-25T06:44:16;28.93;;;12.63;;
19507;SDS011;40157;42.566;27.526;2023-03-25T06:46:17;29.13;;;12.47;;
19507;SDS011;40157;42.566;27.526;2023-03-25T06:48:17;26.67;;;11.83;;
19507;SDS011;40157;42.566;27.526;2023-03-25T06:50:21;22.57;;;11.60;;
19507;SDS011;40157;42.566;27.526;2023-03-25T06:52:21;23.70;;;11.20;;
19507;SDS011;40157;42.566;27.526;2023-03-25T06:54:30;24.10;;;11.83;;
19507;SDS011;40157;42.566;27.526;2023-03-25T06:56:31;32.67;;;13.00;;
19507;SDS011;40157;42.566;27.526;2023-03-25T06:58:32;22.10;;;11.63;;
19507;SDS011;40157;42.566;27.526;2023-03-25T07:00:35;25.37;;;12.53;;
19507;SDS011;40157;42.566;27.526;2023-03-25T07:02:37;21.73;;;11.00;;
19507;SDS011;40157;42.566;27.526;2023-03-25T07:04:38;17.20;;;8.03;;
19507;SDS011;40157;42.566;27.526;2023-03-25T07:06:39;17.90;;;9.33;;
19507;SDS011;40157;42.566;27.526;2023-03-25T07:08:40;17.27;;;9.67;;
19507;SDS011;40157;42.566;27.526;2023-03-25T07:10:40;20.10;;;10.67;;
19507;SDS011;40157;42.566;27.526;2023-03-25T07:12:40;22.23;;;12.23;;
19507;SDS011;40157;42.566;27.526;2023-03-25T07:14:41;20.83;;;11.43;;
19507;SDS011;40157;42.566;27.526;2023-03-25T07:16:43;19.70;;;11.13;;
19507;SDS011;40157;42.566;27.526;2023-03-25T07:18:43;23.33;;;11.57;;
19507;SDS011;40157;42.566;27.526;2023-03-25T07:20:44;21.80;;;11.70;;
19507;SDS011;40157;42.566;27.526;2023-03-25T07:22:44;20.20;;;11.27;;
19507;SDS011;40157;42.566;27.526;2023-03-25T07:24:45;19.73;;;11.70;;
19507;SDS011;40157;42.566;27.526;2023-03-25T07:26:45;22.43;;;12.60;;
19507;SDS011;40157;42.566;27.526;2023-03-25T07:28:46;27.40;;;13.47;;
19507;SDS011;40157;42.566;27.526;2023-03-25T07:30:47;25.87;;;12.67;;
19507;SDS011;40157;42.566;27.526;2023-03-25T07:32:47;24.07;;;12.97;;
19507;SDS011;40157;42.566;27.526;2023-03-25T07:34:48;22.87;;;13.60;;
19507;SDS011;40157;42.566;27.526;2023-03-25T07:36:51;26.57;;;13.17;;
19507;SDS011;40157;42.566;27.526;2023-03-25T07:38:55;25.03;;;13.47;;
19507;SDS011;40157;42.566;27.526;2023-03-25T07:40:55;26.20;;;12.53;;
19507;SDS011;40157;42.566;27.526;2023-03-25T07:42:56;20.90;;;11.47;;
19507;SDS011;40157;42.566;27.526;2023-03-25T07:44:56;24.37;;;12.70;;
19507;SDS011;40157;42.566;27.526;2023-03-25T07:46:57;23.63;;;12.63;;
19507;SDS011;40157;42.566;27.526;2023-03-25T07:48:57;21.27;;;11.90;;
19507;SDS011;40157;42.566;27.526;2023-03-25T07:50:57;19.73;;;12.17;;
19507;SDS011;40157;42.566;27.526;2023-03-25T07:52:58;25.43;;;13.63;;
19507;SDS011;40157;42.566;27.526;2023-03-25T07:54:58;26.07;;;12.63;;
19507;SDS011;40157;42.566;27.526;2023-03-25T07:56:59;23.70;;;12.37;;
19507;SDS011;40157;42.566;27.526;2023-03-25T07:59:00;26.60;;;12.67;;
19507;SDS011;40157;42.566;27.526;2023-03-25T08:01:01;24.47;;;12.33;;
19507;SDS011;40157;42.566;27.526;2023-03-25T08:03:02;26.47;;;12.70;;
19507;SDS011;40157;42.566;27.526;2023-03-25T08:05:02;20.03;;;11.50;;
19507;SDS011;40157;42.566;27.526;2023-03-25T08:07:04;22.70;;;12.03;;
19507;SDS011;40157;42.566;27.526;2023-03-25T08:09:05;26.37;;;12.10;;
19507;SDS011;40157;42.566;27.526;2023-03-25T08:11:06;21.07;;;10.90;;
19507;SDS011;40157;42.566;27.526;2023-03-25T08:13:07;21.43;;;10.93;;
19507;SDS011;40157;42.566;27.526;2023-03-25T08:15:07;21.43;;;10.90;;
19507;SDS011;40157;42.566;27.526;2023-03-25T08:17:08;23.10;;;11.83;;
19507;SDS011;40157;42.566;27.526;2023-03-25T08:19:09;20.43;;;10.70;;
19507;SDS011;40157;42.566;27.526;2023-03-25T08:21:10;20.57;;;10.10;;
19507;SDS011;40157;42.566;27.526;2023-03-25T08:23:11;20.80;;;10.60;;
19507;SDS011;40157;42.566;27.526;2023-03-25T08:25:17;23.60;;;11.60;;
19507;SDS011;40157;42.566;27.526;2023-03-25T08:27:18;20.17;;;10.63;;
19507;SDS011;40157;42.566;27.526;2023-03-25T08:29:21;19.27;;;9.67;;
19507;SDS011;40157;42.566;27.526;2023-03-25T08:31:24;22.00;;;10.00;;
19507;SDS011;40157;42.566;27.526;2023-03-25T08:33:25;16.80;;;8.53;;
19507;SDS011;40157;42.566;27.526;2023-03-25T08:35:36;17.83;;;9.67;;
19507;SDS011;40157;42.566;27.526;2023-03-25T08:37:37;14.53;;;8.00;;
19507;SDS011;40157;42.566;27.526;2023-03-25T08:39:40;14.93;;;8.43;;
19507;SDS011;40157;42.566;27.526;2023-03-25T08:41:44;17.77;;;8.23;;
19507;SDS011;40157;42.566;27.526;2023-03-25T08:43:44;17.43;;;7.70;;
19507;SDS011;40157;42.566;27.526;2023-03-25T08:45:45;16.93;;;8.07;;
19507;SDS011;40157;42.566;27.526;2023-03-25T08:47:45;15.80;;;7.70;;
19507;SDS011;40157;42.566;27.526;2023-03-25T08:49:46;14.50;;;8.20;;
19507;SDS011;40157;42.566;27.526;2023-03-25T08:51:46;15.87;;;8.00;;
19507;SDS011;40157;42.566;27.526;2023-03-25T08:53:46;18.37;;;8.17;;
19507;SDS011;40157;42.566;27.526;2023-03-25T08:55:51;15.27;;;7.97;;
19507;SDS011;40157;42.566;27.526;2023-03-25T08:57:55;16.60;;;8.17;;
19507;SDS011;40157;42.566;27.526;2023-03-25T08:59:55;15.07;;;7.43;;
19507;SDS011;40157;42.566;27.526;2023-03-25T09:01:56;17.03;;;8.33;;
19507;SDS011;40157;42.566;27.526;2023-03-25T09:03:56;17.20;;;8.43;;
19507;SDS011;40157;42.566;27.526;2023-03-25T09:05:56;18.30;;;8.13;;
19507;SDS011;40157;42.566;27.526;2023-03-25T09:07:57;16.77;;;8.17;;
19507;SDS011;40157;42.566;27.526;2023-03-25T09:09:57;19.07;;;8.10;;
19507;SDS011;40157;42.566;27.526;2023-03-25T09:11:58;17.43;;;7.90;;
19507;SDS011;40157;42.566;27.526;2023-03-25T09:13:59;15.37;;;8.23;;
19507;SDS011;40157;42.566;27.526;2023-03-25T09:16:01;21.20;;;8.00;;
19507;SDS011;40157;42.566;27.526;2023-03-25T09:18:02;18.93;;;9.13;;
19507;SDS011;40157;42.566;27.526;2023-03-25T09:20:04;18.93;;;9.07;;
19507;SDS011;40157;42.566;27.526;2023-03-25T09:22:07;18.60;;;9.27;;
19507;SDS011;40157;42.566;27.526;2023-03-25T09:24:08;15.30;;;7.77;;
19507;SDS011;40157;42.566;27.526;2023-03-25T09:26:08;12.17;;;7.73;;
19507;SDS011;40157;42.566;27.526;2023-03-25T09:28:09;12.33;;;7.00;;
19507;SDS011;40157;42.566;27.526;2023-03-25T09:30:09;14.17;;;7.17;;
19507;SDS011;40157;42.566;27.526;2023-03-25T09:32:10;13.53;;;6.70;;
19507;SDS011;40157;42.566;27.526;2023-03-25T09:34:11;11.50;;;6.30;;
19507;SDS011;40157;42.566;27.526;2023-03-25T09:36:11;10.33;;;5.67;;
19507;SDS011;40157;42.566;27.526;2023-03-25T09:38:12;15.47;;;7.40;;
19507;SDS011;40157;42.566;27.526;2023-03-25T09:40:14;14.67;;;8.07;;
19507;SDS011;40157;42.566;27.526;2023-03-25T09:47:16;11.20;;;5.17;;
19507;SDS011;40157;42.566;27.526;2023-03-25T09:49:21;9.67;;;5.97;;
19507;SDS011;40157;42.566;27.526;2023-03-25T09:51:26;11.03;;;6.57;;
19507;SDS011;40157;42.566;27.526;2023-03-25T09:55:40;11.23;;;6.83;;
19507;SDS011;40157;42.566;27.526;2023-03-25T09:57:44;12.97;;;6.67;;
19507;SDS011;40157;42.566;27.526;2023-03-25T09:59:49;14.30;;;7.97;;
19507;SDS011;40157;42.566;27.526;2023-03-25T10:01:54;14.70;;;7.97;;
19507;SDS011;40157;42.566;27.526;2023-03-25T10:06:15;16.20;;;8.60;;
19507;SDS011;40157;42.566;27.526;2023-03-25T10:15:46;14.37;;;8.97;;
19507;SDS011;40157;42.566;27.526;2023-03-25T10:22:57;13.50;;;7.30;;
19507;SDS011;40157;42.566;27.526;2023-03-25T10:24:58;12.90;;;8.00;;
19507;SDS011;40157;42.566;27.526;2023-03-25T10:27:12;13.27;;;7.87;;
19507;SDS011;40157;42.566;27.526;2023-03-25T10:29:21;13.80;;;8.20;;
19507;SDS011;40157;42.566;27.526;2023-03-25T10:31:32;13.47;;;7.90;;
19507;SDS011;40157;42.566;27.526;2023-03-25T10:33:38;11.33;;;7.23;;
19507;SDS011;40157;42.566;27.526;2023-03-25T10:35:43;13.63;;;7.37;;
19507;SDS011;40157;42.566;27.526;2023-03-25T10:37:47;15.30;;;8.20;;
19507;SDS011;40157;42.566;27.526;2023-03-25T10:39:51;15.93;;;9.03;;
19507;SDS011;40157;42.566;27.526;2023-03-25T10:41:56;11.77;;;7.20;;
19507;SDS011;40157;42.566;27.526;2023-03-25T10:44:06;12.73;;;8.50;;
19507;SDS011;40157;42.566;27.526;2023-03-25T10:48:28;13.33;;;8.10;;
19507;SDS011;40157;42.566;27.526;2023-03-25T10:50:29;12.60;;;8.20;;
19507;SDS011;40157;42.566;27.526;2023-03-25T10:52:30;14.57;;;7.40;;
19507;SDS011;40157;42.566;27.526;2023-03-25T10:57:01;12.53;;;7.57;;
19507;SDS011;40157;42.566;27.526;2023-03-25T10:59:06;15.93;;;7.40;;
19507;SDS011;40157;42.566;27.526;2023-03-25T11:01:24;12.37;;;8.17;;
19507;SDS011;40157;42.566;27.526;2023-03-25T11:03:35;12.53;;;7.83;;
19507;SDS011;40157;42.566;27.526;2023-03-25T11:05:46;44.77;;;9.03;;
19507;SDS011;40157;42.566;27.526;2023-03-25T11:07:50;18.80;;;8.70;;
19507;SDS011;40157;42.566;27.526;2023-03-25T11:10:00;13.90;;;7.77;;
19507;SDS011;40157;42.566;27.526;2023-03-25T11:12:36;10.63;;;7.00;;
19507;SDS011;40157;42.566;27.526;2023-03-25T11:14:38;13.00;;;6.97;;
19507;SDS011;40157;42.566;27.526;2023-03-25T11:17:01;12.87;;;7.07;;
19507;SDS011;40157;42.566;27.526;2023-03-25T11:19:02;14.43;;;7.60;;
19507;SDS011;40157;42.566;27.526;2023-03-25T11:21:11;10.73;;;7.07;;
19507;SDS011;40157;42.566;27.526;2023-03-25T11:23:20;10.47;;;6.70;;
19507;SDS011;40157;42.566;27.526;2023-03-25T11:25:25;12.80;;;7.00;;
19507;SDS011;40157;42.566;27.526;2023-03-25T11:28:18;15.20;;;6.50;;
19507;SDS011;40157;42.566;27.526;2023-03-25T11:30:02;12.10;;;7.20;;
19507;SDS011;40157;42.566;27.526;2023-03-25T11:32:07;15.50;;;7.83;;
19507;SDS011;40157;42.566;27.526;2023-03-25T11:34:19;13.30;;;7.57;;
19507;SDS011;40157;42.566;27.526;2023-03-25T11:36:22;13.43;;;7.47;;
19507;SDS011;40157;42.566;27.526;2023-03-25T11:38:28;12.00;;;7.70;;
19507;SDS011;40157;42.566;27.526;2023-03-25T11:40:31;10.83;;;6.80;;
19507;SDS011;40157;42.566;27.526;2023-03-25T11:42:38;13.40;;;7.93;;
19507;SDS011;40157;42.566;27.526;2023-03-25T11:44:42;15.23;;;7.47;;
19507;SDS011;40157;42.566;27.526;2023-03-25T11:46:50;12.87;;;7.77;;
19507;SDS011;40157;42.566;27.526;2023-03-25T11:48:55;13.33;;;8.03;;
19507;SDS011;40157;42.566;27.526;2023-03-25T11:51:00;13.87;;;7.87;;
19507;SDS011;40157;42.566;27.526;2023-03-25T11:53:02;16.13;;;8.93;;
19507;SDS011;40157;42.566;27.526;2023-03-25T11:55:05;11.40;;;7.00;;
19507;SDS011;40157;42.566;27.526;2023-03-25T11:57:15;11.50;;;7.07;;
19507;SDS011;40157;42.566;27.526;2023-03-25T11:59:21;12.23;;;7.53;;
19507;SDS011;40157;42.566;27.526;2023-03-25T12:01:24;14.83;;;8.60;;
19507;SDS011;40157;42.566;27.526;2023-03-25T12:03:35;12.60;;;7.63;;
19507;SDS011;40157;42.566;27.526;2023-03-25T12:05:38;17.00;;;9.37;;
19507;SDS011;40157;42.566;27.526;2023-03-25T12:07:47;14.70;;;8.47;;
19507;SDS011;40157;42.566;27.526;2023-03-25T12:09:53;20.27;;;11.00;;
19507;SDS011;40157;42.566;27.526;2023-03-25T12:12:12;17.60;;;9.80;;
19507;SDS011;40157;42.566;27.526;2023-03-25T12:16:54;17.47;;;10.07;;
19507;SDS011;40157;42.566;27.526;2023-03-25T12:21:40;18.87;;;10.50;;
19507;SDS011;40157;42.566;27.526;2023-03-25T12:28:14;15.00;;;9.17;;
19507;SDS011;40157;42.566;27.526;2023-03-25T12:30:38;19.00;;;9.40;;
19507;SDS011;40157;42.566;27.526;2023-03-25T12:35:26;14.93;;;8.83;;
19507;SDS011;40157;42.566;27.526;2023-03-25T12:40:20;15.83;;;8.13;;
19507;SDS011;40157;42.566;27.526;2023-03-25T12:44:50;13.87;;;9.27;;
19507;SDS011;40157;42.566;27.526;2023-03-25T12:49:40;16.20;;;8.37;;
19507;SDS011;40157;42.566;27.526;2023-03-25T12:53:54;18.60;;;10.23;;
19507;SDS011;40157;42.566;27.526;2023-03-25T13:05:23;16.07;;;9.20;;
19507;SDS011;40157;42.566;27.526;2023-03-25T13:07:37;20.67;;;11.20;;
19507;SDS011;40157;42.566;27.526;2023-03-25T13:12:10;24.20;;;11.77;;
19507;SDS011;40157;42.566;27.526;2023-03-25T13:14:38;18.53;;;11.37;;
19507;SDS011;40157;42.566;27.526;2023-03-25T13:16:43;15.93;;;9.77;;
19507;SDS011;40157;42.566;27.526;2023-03-25T13:18:47;16.83;;;8.90;;
19507;SDS011;40157;42.566;27.526;2023-03-25T13:23:20;18.53;;;9.83;;
19507;SDS011;40157;42.566;27.526;2023-03-25T13:25:27;19.70;;;10.77;;
19507;SDS011;40157;42.566;27.526;2023-03-25T13:27:33;15.57;;;9.53;;
19507;SDS011;40157;42.566;27.526;2023-03-25T13:29:41;14.80;;;9.13;;
19507;SDS011;40157;42.566;27.526;2023-03-25T13:31:43;29.60;;;11.30;;
19507;SDS011;40157;42.566;27.526;2023-03-25T13:33:52;50.70;;;15.10;;
19507;SDS011;40157;42.566;27.526;2023-03-25T13:36:16;68.13;;;18.90;;
19507;SDS011;40157;42.566;27.526;2023-03-25T13:40:53;28.67;;;11.90;;
19507;SDS011;40157;42.566;27.526;2023-03-25T13:45:20;20.87;;;9.73;;